Time;durP1;ratioP1;P1;durP2;ratioP2;P2;SDS_P1;SDS_P2;PMS_P1;PMS_P2;Temp;Humidity;BMP_temperature;BMP_pressure;BME280_temperature;BME280_humidity;BME280_pressure;Samples;Min_cycle;Max_cycle;Signal;HPM_P1;HPM_P2
2021/09/14 00:00:16;;;;;;;135.98;79.64;;;;;;;15.90;64.51;100526.81;459524;114;922467;-87
2021/09/14 00:01:19;;;;;;;140.49;79.42;;;;;;;15.88;64.63;100517.17;460813;114;922561;-85
2021/09/14 00:02:23;;;;;;;139.79;83.78;;;;;;;15.85;64.71;100526.74;460129;114;923444;-85
2021/09/14 00:03:27;;;;;;;148.14;83.72;;;;;;;15.83;64.69;100517.89;459637;114;923010;-85
2021/09/14 00:04:30;;;;;;;145.03;82.99;;;;;;;15.80;64.65;100524.75;462132;114;930486;-85
2021/09/14 00:05:34;;;;;;;145.64;81.82;;;;;;;15.79;64.62;100525.83;463321;113;923121;-86
2021/09/14 00:06:40;;;;;;;136.71;78.19;;;;;;;15.78;64.72;100526.91;463401;114;930201;-85
2021/09/14 00:07:44;;;;;;;110.23;64.56;;;;;;;15.79;64.79;100523.08;461063;114;930607;-86
2021/09/14 00:08:48;;;;;;;111.48;64.03;;;;;;;15.78;64.77;100521.41;461368;113;922619;-85
2021/09/14 00:09:51;;;;;;;97.70;58.51;;;;;;;15.78;64.83;100526.06;463295;114;930345;-84
2021/09/14 00:10:55;;;;;;;85.53;52.22;;;;;;;15.77;64.90;100524.39;463630;114;930304;-83
2021/09/14 00:11:59;;;;;;;98.78;53.83;;;;;;;15.77;64.97;100524.39;465108;114;922868;-86
2021/09/14 00:13:02;;;;;;;100.69;57.96;;;;;;;15.78;65.04;100526.06;463015;114;923222;-86
2021/09/14 00:14:06;;;;;;;89.74;51.82;;;;;;;15.79;64.92;100516.74;463118;113;930703;-86
2021/09/14 00:15:11;;;;;;;80.97;45.68;;;;;;;15.79;64.92;100516.74;463267;114;922580;-85
2021/09/14 00:16:15;;;;;;;79.90;47.52;;;;;;;15.80;64.95;100522.00;462444;114;922857;-87
2021/09/14 00:17:18;;;;;;;81.31;49.00;;;;;;;15.79;64.97;100519.49;463173;113;922645;-86
2021/09/14 00:18:22;;;;;;;83.78;48.88;;;;;;;15.78;64.97;100526.91;463901;114;922511;-86
2021/09/14 00:19:26;;;;;;;88.17;49.86;;;;;;;15.78;64.94;100520.56;462897;113;922429;-86
2021/09/14 00:20:30;;;;;;;84.21;50.16;;;;;;;15.78;64.94;100520.56;463181;114;930517;-86
2021/09/14 00:21:33;;;;;;;81.12;48.78;;;;;;;15.76;64.76;100518.09;463190;114;922424;-85
2021/09/14 00:22:37;;;;;;;80.76;46.94;;;;;;;15.74;64.68;100520.25;463558;114;930376;-86
2021/09/14 00:23:41;;;;;;;72.98;46.37;;;;;;;15.73;64.68;100521.33;464349;114;930284;-86
2021/09/14 00:24:44;;;;;;;75.41;45.73;;;;;;;15.72;64.62;100521.56;458101;115;922638;-85
2021/09/14 00:25:48;;;;;;;73.31;44.42;;;;;;;15.71;64.52;100517.98;458128;114;930525;-86
2021/09/14 00:26:52;;;;;;;72.41;45.51;;;;;;;15.70;64.45;100518.25;463641;114;922544;-84
2021/09/14 00:27:56;;;;;;;83.16;46.07;;;;;;;15.69;64.43;100516.58;464126;113;922282;-85
2021/09/14 00:29:00;;;;;;;82.64;46.79;;;;;;;15.69;64.45;100511.92;464093;114;922456;-85
2021/09/14 00:30:04;;;;;;;77.79;45.10;;;;;;;15.71;64.45;100515.23;464527;114;922112;-86
2021/09/14 00:31:08;;;;;;;75.16;44.85;;;;;;;15.71;64.39;100514.43;464187;113;922808;-85
2021/09/14 00:32:12;;;;;;;73.51;42.87;;;;;;;15.70;64.39;100508.09;464336;113;922299;-85
2021/09/14 00:33:16;;;;;;;72.80;43.58;;;;;;;15.70;64.30;100508.09;464562;112;930102;-87
2021/09/14 00:34:21;;;;;;;71.99;43.59;;;;;;;15.69;64.24;100508.34;464581;114;930181;-86
2021/09/14 00:35:25;;;;;;;69.56;43.81;;;;;;;15.69;64.13;100516.58;462872;114;922044;-87
2021/09/14 00:36:28;;;;;;;68.83;42.49;;;;;;;15.67;64.04;100511.33;465219;113;930157;-86
2021/09/14 00:37:32;;;;;;;71.30;43.26;;;;;;;15.67;64.04;100518.73;463567;113;930224;-85
2021/09/14 00:38:35;;;;;;;73.72;44.62;;;;;;;15.65;63.96;100509.92;464354;114;922312;-86
2021/09/14 00:39:38;;;;;;;71.04;44.12;;;;;;;15.64;63.93;100508.26;462969;114;930463;-86
2021/09/14 00:40:43;;;;;;;71.97;45.45;;;;;;;15.63;63.91;100512.92;451153;116;922810;-85
2021/09/14 00:41:46;;;;;;;77.92;45.04;;;;;;;15.62;63.91;100510.41;446553;116;922476;-86
2021/09/14 00:42:50;;;;;;;67.89;45.48;;;;;;;15.60;63.88;100512.59;465480;114;922435;-86
2021/09/14 00:43:58;;;;;;;76.91;46.49;;;;;;;15.59;63.89;100517.25;464246;114;922152;-86
2021/09/14 00:45:06;;;;;;;83.49;46.43;;;;;;;15.58;63.90;100517.50;464223;114;922453;-87
2021/09/14 00:46:10;;;;;;;78.28;44.94;;;;;;;15.57;63.87;100519.41;463695;114;922180;-85
2021/09/14 00:47:14;;;;;;;71.59;45.61;;;;;;;15.55;63.82;100518.81;455531;116;922887;-86
2021/09/14 00:48:18;;;;;;;68.17;42.88;;;;;;;15.54;63.83;100521.83;455071;115;930171;-86
2021/09/14 00:49:22;;;;;;;74.49;43.90;;;;;;;15.53;63.86;100522.91;464238;114;922635;-87
2021/09/14 00:50:27;;;;;;;64.52;39.51;;;;;;;15.51;63.89;100514.87;459175;114;922231;-86
2021/09/14 00:51:32;;;;;;;51.59;34.34;;;;;;;15.50;64.02;100517.86;445832;116;923282;-85
2021/09/14 00:52:35;;;;;;;52.52;35.99;;;;;;;15.48;64.21;100515.38;453067;114;923077;-86
2021/09/14 00:53:39;;;;;;;50.79;33.86;;;;;;;15.47;64.35;100516.45;463667;114;930319;-87
2021/09/14 00:54:44;;;;;;;40.93;27.96;;;;;;;15.47;64.43;100516.45;464313;113;923070;-85
2021/09/14 00:55:49;;;;;;;40.47;28.46;;;;;;;15.46;64.47;100514.78;461929;114;930537;-87
2021/09/14 00:56:56;;;;;;;42.32;28.60;;;;;;;15.45;64.50;100513.95;464336;113;922776;-86
2021/09/14 00:58:00;;;;;;;40.28;28.37;;;;;;;15.45;64.55;100519.45;463654;114;923190;-87
2021/09/14 00:59:04;;;;;;;37.34;27.24;;;;;;;15.47;64.58;100519.20;462906;113;922982;-87
2021/09/14 01:00:08;;;;;;;43.87;27.71;;;;;;;15.47;64.58;100519.20;462238;113;930404;-86
2021/09/14 01:01:12;;;;;;;47.37;28.75;;;;;;;15.47;64.59;100518.37;461975;113;922856;-86
2021/09/14 01:02:16;;;;;;;35.46;27.06;;;;;;;15.44;64.63;100514.19;463823;114;922891;-87
2021/09/14 01:03:20;;;;;;;39.81;28.01;;;;;;;15.43;64.66;100513.38;463692;114;922544;-87
2021/09/14 01:04:24;;;;;;;44.74;28.28;;;;;;;15.41;64.72;100515.53;462623;114;922688;-86
2021/09/14 01:05:27;;;;;;;37.99;28.30;;;;;;;15.39;64.74;100512.19;463210;114;922902;-87
2021/09/14 01:06:32;;;;;;;41.78;29.11;;;;;;;15.39;64.77;100511.36;463774;114;930868;-87
2021/09/14 01:07:37;;;;;;;44.01;29.04;;;;;;;15.38;64.75;100516.02;463592;113;922614;-87
2021/09/14 01:08:42;;;;;;;49.37;28.86;;;;;;;15.38;64.78;100513.27;463226;114;922948;-85
2021/09/14 01:09:46;;;;;;;42.69;29.81;;;;;;;15.36;64.70;100509.12;463350;114;923752;-86
2021/09/14 01:10:51;;;;;;;40.41;29.08;;;;;;;15.34;64.70;100514.85;462545;114;922569;-85
2021/09/14 01:11:55;;;;;;;42.81;28.04;;;;;;;15.33;64.75;100509.59;462215;114;922808;-86
2021/09/14 01:13:00;;;;;;;45.41;29.46;;;;;;;15.33;64.73;100515.93;461710;114;922420;-88
2021/09/14 01:14:05;;;;;;;41.60;29.54;;;;;;;15.31;64.71;100512.61;462749;113;922532;-86
2021/09/14 01:15:10;;;;;;;42.26;27.91;;;;;;;15.30;64.72;100512.85;458808;115;930600;-86
2021/09/14 01:16:14;;;;;;;42.99;29.19;;;;;;;15.29;64.71;100511.18;460023;114;922054;-86
2021/09/14 01:17:18;;;;;;;48.06;28.89;;;;;;;15.29;64.75;100511.18;465422;114;922094;-85
2021/09/14 01:18:22;;;;;;;43.08;30.43;;;;;;;15.27;64.71;100514.17;465496;113;922181;-86
2021/09/14 01:19:25;;;;;;;56.17;31.54;;;;;;;15.28;64.75;100507.59;462745;114;922106;-87
2021/09/14 01:20:31;;;;;;;47.08;29.32;;;;;;;15.30;64.74;100516.44;463411;113;930334;-86
2021/09/14 01:21:35;;;;;;;49.38;29.75;;;;;;;15.31;64.67;100509.03;464438;112;922989;-87
2021/09/14 01:22:39;;;;;;;46.42;27.92;;;;;;;15.30;64.59;100510.94;463825;109;922790;-86
2021/09/14 01:23:43;;;;;;;48.08;28.02;;;;;;;15.31;64.57;100514.52;465074;113;923384;-85
2021/09/14 01:24:46;;;;;;;43.87;26.74;;;;;;;15.29;64.52;100509.27;465326;112;922225;-87
2021/09/14 01:25:50;;;;;;;38.61;26.09;;;;;;;15.29;64.45;100520.26;463731;114;930179;-86
2021/09/14 01:26:55;;;;;;;45.91;26.41;;;;;;;15.28;64.39;100513.09;462905;114;930851;-86
2021/09/14 01:28:04;;;;;;;48.34;26.44;;;;;;;15.28;64.37;100515.00;463864;113;923018;-86
2021/09/14 01:30:11;;;;;;;41.21;26.07;;;;;;;15.28;64.33;100510.34;464696;114;929897;-86
2021/09/14 01:30:19;;;;;;;39.51;26.27;;;;;;;15.28;64.25;100515.84;462076;114;922375;-86
2021/09/14 01:31:23;;;;;;;41.64;25.91;;;;;;;15.29;64.25;100514.77;461773;114;922433;-85
2021/09/14 01:32:27;;;;;;;49.09;26.19;;;;;;;15.28;64.17;100517.75;465279;114;922938;-85
2021/09/14 01:33:31;;;;;;;46.65;26.07;;;;;;;15.28;64.18;100523.24;463820;114;922584;-86
2021/09/14 01:34:34;;;;;;;47.28;25.77;;;;;;;15.28;64.16;100517.75;463362;114;922884;-85
2021/09/14 01:35:38;;;;;;;47.87;25.53;;;;;;;15.27;64.15;100522.41;463514;114;930541;-84
2021/09/14 01:36:44;;;;;;;43.54;26.48;;;;;;;15.27;64.28;100525.16;463708;113;930685;-87
2021/09/14 01:37:48;;;;;;;39.82;26.53;;;;;;;15.25;64.34;100521.84;465327;114;922514;-86
2021/09/14 01:38:52;;;;;;;37.46;26.41;;;;;;;15.26;64.46;100528.17;464543;114;930454;-86
2021/09/14 01:39:56;;;;;;;38.48;25.72;;;;;;;15.24;64.62;100522.91;464362;113;923165;-87
2021/09/14 01:40:59;;;;;;;34.95;25.56;;;;;;;15.24;64.68;100531.16;461635;114;930414;-86
2021/09/14 01:42:03;;;;;;;37.20;25.43;;;;;;;15.23;64.73;100523.16;461188;114;922486;-86
2021/09/14 01:43:07;;;;;;;41.76;25.89;;;;;;;15.23;64.76;100520.41;463735;114;930516;-86
2021/09/14 01:44:11;;;;;;;43.03;25.63;;;;;;;15.21;64.83;100528.08;464210;114;922988;-87
2021/09/14 01:45:15;;;;;;;36.79;24.04;;;;;;;15.19;64.87;100519.24;462469;114;922573;-86
2021/09/14 01:46:19;;;;;;;37.72;25.81;;;;;;;15.18;64.89;100521.16;462915;114;930393;-86
2021/09/14 01:47:22;;;;;;;37.71;25.06;;;;;;;15.17;64.95;100521.39;463358;114;923062;-87
2021/09/14 01:48:26;;;;;;;33.02;25.94;;;;;;;15.17;64.99;100515.89;461279;114;927940;-86
2021/09/14 01:49:29;;;;;;;32.34;24.30;;;;;;;15.16;65.07;100526.05;462054;113;922854;-86
2021/09/14 01:50:34;;;;;;;35.14;25.34;;;;;;;15.15;65.09;100516.16;458782;114;922896;-86
2021/09/14 01:51:37;;;;;;;33.51;26.92;;;;;;;15.15;65.14;100518.08;459683;114;923031;-87
2021/09/14 01:52:41;;;;;;;40.84;25.36;;;;;;;15.14;65.19;100524.64;463521;114;930560;-86
2021/09/14 01:53:46;;;;;;;46.35;28.12;;;;;;;15.12;65.25;100516.64;463786;114;930236;-85
2021/09/14 01:54:50;;;;;;;38.64;25.42;;;;;;;15.12;65.33;100522.13;462232;114;923128;-86
2021/09/14 01:55:58;;;;;;;32.96;25.44;;;;;;;15.14;65.37;100521.89;462495;114;930413;-86
2021/09/14 01:57:02;;;;;;;31.02;24.97;;;;;;;15.14;65.34;100519.98;463328;114;922929;-86
2021/09/14 01:58:06;;;;;;;40.41;26.42;;;;;;;15.14;65.32;100519.98;464182;114;922478;-85
2021/09/14 01:59:11;;;;;;;37.06;25.80;;;;;;;15.14;65.32;100519.98;462839;114;922481;-85
2021/09/14 02:00:29;;;;;;;38.67;26.78;;;;;;;15.13;65.34;100518.31;463822;114;922947;-86
2021/09/14 02:01:39;;;;;;;40.69;27.67;;;;;;;15.12;65.27;100522.13;463910;114;922975;-85
2021/09/14 02:03:05;;;;;;;46.56;28.59;;;;;;;15.10;65.32;100523.48;463052;113;922766;-86
2021/09/14 02:05:10;;;;;;;70.89;36.41;;;;;;;15.10;65.43;100520.73;463511;114;922142;-85
2021/09/14 02:06:32;;;;;;;94.20;44.08;;;;;;;15.12;65.42;100522.13;462116;114;922761;-86
2021/09/14 02:08:01;;;;;;;99.83;46.17;;;;;;;15.14;65.32;100524.64;463274;113;923112;-85
2021/09/14 02:23:45;;;;;;;165.31;71.01;;;;;;;15.05;65.05;100526.13;464175;114;922905;-84
2021/09/14 02:24:01;;;;;;;145.98;56.63;;;;;;;14.92;64.97;100521.75;455355;116;922388;-86
2021/09/14 02:38:38;;;;;;;241.78;109.09;;;;;;;14.81;64.55;100534.45;451849;116;922657;-86
2021/09/14 02:41:11;;;;;;;161.17;79.09;;;;;;;14.85;64.43;100526.55;457384;114;922760;-86
2021/09/14 02:42:19;;;;;;;160.13;78.71;;;;;;;14.87;64.35;100530.73;461674;114;922995;-84
2021/09/14 02:43:26;;;;;;;146.76;71.68;;;;;;;14.88;64.33;100529.66;460162;114;922615;-85
2021/09/14 02:59:07;;;;;;;163.44;82.93;;;;;;;14.85;64.01;100537.52;464439;114;922301;-85
2021/09/14 03:00:13;;;;;;;168.50;86.76;;;;;;;14.83;63.97;100535.02;462886;114;922884;-85
2021/09/14 03:01:17;;;;;;;173.21;89.11;;;;;;;14.81;64.02;100530.86;463282;113;922312;-86
2021/09/14 03:02:21;;;;;;;176.91;91.34;;;;;;;14.78;64.06;100540.41;464077;113;922432;-86
2021/09/14 03:03:25;;;;;;;180.55;93.74;;;;;;;14.76;64.07;100530.77;464222;114;929972;-85
2021/09/14 03:04:29;;;;;;;193.73;98.02;;;;;;;14.75;64.10;100540.91;464101;113;922040;-85
2021/09/14 03:05:32;;;;;;;189.54;101.04;;;;;;;14.73;64.18;100543.05;463783;114;930181;-86
2021/09/14 03:06:36;;;;;;;197.98;106.93;;;;;;;14.73;64.18;100543.05;462725;114;929897;-86
2021/09/14 03:07:42;;;;;;;202.38;109.84;;;;;;;14.72;64.21;100548.80;462339;114;923065;-85
2021/09/14 03:08:47;;;;;;;196.55;109.00;;;;;;;14.71;64.26;100541.64;463043;114;922908;-86
2021/09/14 03:09:52;;;;;;;206.22;108.76;;;;;;;14.71;64.27;100544.38;463798;113;922565;-85
2021/09/14 03:10:57;;;;;;;192.82;104.49;;;;;;;14.70;64.28;100548.20;455434;115;922697;-86
2021/09/14 03:12:00;;;;;;;189.42;101.63;;;;;;;14.69;64.33;100544.62;455707;114;922796;-86
2021/09/14 03:13:05;;;;;;;177.79;97.63;;;;;;;14.68;64.30;100548.44;462860;114;922498;-86
2021/09/14 03:14:09;;;;;;;198.44;95.51;;;;;;;14.67;64.31;100548.67;462884;114;922816;-85
2021/09/14 03:15:12;;;;;;;183.68;92.94;;;;;;;14.66;64.34;100542.37;463024;114;931534;-85
2021/09/14 03:16:16;;;;;;;182.88;92.14;;;;;;;14.65;64.40;100548.09;463266;114;930440;-86
2021/09/14 03:17:20;;;;;;;184.98;92.97;;;;;;;14.64;64.50;100547.26;463619;113;922870;-86
2021/09/14 03:18:23;;;;;;;166.59;88.24;;;;;;;14.66;64.54;100550.61;453651;116;930406;-86
2021/09/14 03:19:28;;;;;;;164.49;90.62;;;;;;;14.67;64.56;100551.41;462343;114;930517;-84
2021/09/14 03:20:33;;;;;;;162.73;89.23;;;;;;;14.68;64.50;100545.69;443941;117;922872;-87
2021/09/14 03:21:37;;;;;;;160.90;86.23;;;;;;;14.69;64.48;100554.76;441309;116;923019;-86
2021/09/14 03:22:42;;;;;;;163.33;87.48;;;;;;;14.69;64.47;100563.83;453837;114;922816;-85
2021/09/14 03:23:46;;;;;;;156.42;84.44;;;;;;;14.68;64.49;100562.16;463390;114;922524;-86
2021/09/14 03:24:49;;;;;;;148.91;83.45;;;;;;;14.68;64.52;100553.92;462755;113;930355;-85
2021/09/14 03:25:53;;;;;;;139.86;83.14;;;;;;;14.71;64.60;100552.62;463648;114;922467;-86
2021/09/14 03:26:58;;;;;;;146.76;83.31;;;;;;;14.72;64.58;100551.55;455533;114;930355;-85
2021/09/14 03:28:03;;;;;;;151.77;87.32;;;;;;;14.73;64.55;100553.19;454932;114;922993;-86
2021/09/14 03:29:06;;;;;;;162.84;83.55;;;;;;;14.75;64.60;100559.28;462659;114;922560;-85
2021/09/14 03:30:13;;;;;;;149.25;80.76;;;;;;;14.76;64.58;100547.23;463305;114;923542;-85
2021/09/14 03:31:17;;;;;;;139.35;78.35;;;;;;;14.76;64.58;100545.32;464024;114;922434;-85
2021/09/14 03:32:21;;;;;;;128.96;74.61;;;;;;;14.79;64.58;100552.22;462996;113;922550;-85
2021/09/14 03:33:24;;;;;;;135.97;73.50;;;;;;;14.79;64.53;100549.47;463776;113;922907;-86
2021/09/14 03:34:28;;;;;;;126.35;70.35;;;;;;;14.79;64.56;100547.56;464159;114;930408;-86
2021/09/14 03:35:31;;;;;;;129.82;70.19;;;;;;;14.81;64.55;100550.08;455464;116;922465;-86
2021/09/14 03:36:36;;;;;;;128.32;69.78;;;;;;;14.79;64.55;100553.06;461070;113;930397;-86
2021/09/14 03:37:40;;;;;;;133.34;71.35;;;;;;;14.78;64.55;100558.78;464566;113;923069;-86
2021/09/14 03:38:44;;;;;;;111.31;61.59;;;;;;;14.77;64.58;100555.23;463388;114;922578;-85
2021/09/14 03:39:47;;;;;;;110.66;59.08;;;;;;;14.76;64.61;100550.81;461988;114;930787;-85
2021/09/14 03:40:52;;;;;;;95.38;54.42;;;;;;;14.77;64.64;100559.88;462202;114;922561;-85
2021/09/14 03:41:55;;;;;;;94.62;51.16;;;;;;;14.77;64.60;100557.98;463566;113;930036;-86
2021/09/14 03:42:59;;;;;;;91.50;48.19;;;;;;;14.76;64.67;100563.70;464814;114;930270;-85
2021/09/14 03:44:04;;;;;;;81.25;41.65;;;;;;;14.76;64.66;100563.70;462595;114;930503;-87
2021/09/14 03:45:08;;;;;;;79.41;39.47;;;;;;;14.75;64.69;100554.63;462369;113;929961;-86
2021/09/14 03:46:12;;;;;;;67.19;36.35;;;;;;;14.75;64.71;100554.63;463096;114;922986;-85
2021/09/14 03:47:16;;;;;;;69.62;36.01;;;;;;;14.76;64.75;100566.44;463004;114;922526;-85
2021/09/14 03:48:20;;;;;;;58.53;32.06;;;;;;;14.76;64.78;100559.05;463891;114;922448;-86
2021/09/14 03:49:25;;;;;;;58.05;30.03;;;;;;;14.76;64.79;100559.05;463773;114;922028;-85
2021/09/14 03:50:29;;;;;;;61.74;28.20;;;;;;;14.76;64.76;100550.81;465396;112;922383;-86
2021/09/14 03:51:33;;;;;;;45.85;26.49;;;;;;;14.77;64.76;100557.14;463094;114;930057;-86
2021/09/14 03:52:37;;;;;;;49.75;27.89;;;;;;;14.78;64.76;100551.38;463660;114;930047;-87
2021/09/14 03:53:40;;;;;;;49.41;27.33;;;;;;;14.81;64.73;100559.15;462953;114;922147;-86
2021/09/14 03:54:45;;;;;;;61.86;31.00;;;;;;;14.84;64.63;100557.81;463063;114;930083;-85
2021/09/14 03:55:49;;;;;;;68.04;32.35;;;;;;;14.85;64.57;100559.48;464447;114;922995;-86
2021/09/14 03:56:54;;;;;;;60.09;31.48;;;;;;;14.86;64.55;100561.16;462638;113;922717;-86
2021/09/14 03:57:58;;;;;;;64.74;33.45;;;;;;;14.88;64.50;100559.02;463594;114;922449;-87
2021/09/14 03:59:02;;;;;;;58.02;30.13;;;;;;;14.88;64.45;100559.86;464279;114;922445;-86
2021/09/14 04:00:08;;;;;;;57.37;31.04;;;;;;;14.90;64.44;100562.33;462467;113;930523;-86
2021/09/14 04:01:14;;;;;;;49.06;27.59;;;;;;;14.91;64.40;100564.84;461001;114;923067;-85
2021/09/14 04:07:36;;;;;;;83.61;41.79;;;;;;;14.98;64.27;100575.69;461667;114;923411;-86
2021/09/14 04:08:50;;;;;;;84.29;44.46;;;;;;;14.99;64.35;100569.13;461557;113;930565;-85
2021/09/14 04:09:56;;;;;;;89.67;44.57;;;;;;;15.01;64.28;100567.79;461642;114;922623;-84
2021/09/14 04:11:01;;;;;;;85.95;42.98;;;;;;;15.03;64.23;100568.39;463309;114;922874;-85
2021/09/14 04:12:07;;;;;;;80.87;42.66;;;;;;;15.06;64.20;100572.55;464205;114;923084;-85
2021/09/14 04:13:11;;;;;;;82.85;41.08;;;;;;;15.07;64.15;100563.23;463847;114;922604;-85
2021/09/14 04:14:15;;;;;;;77.79;41.79;;;;;;;15.08;64.15;100566.81;463108;113;922972;-83
2021/09/14 04:15:19;;;;;;;78.66;40.44;;;;;;;15.09;64.18;100572.07;462574;114;922581;-86
2021/09/14 04:16:23;;;;;;;76.62;41.96;;;;;;;15.09;64.17;100566.58;460362;113;930334;-85
2021/09/14 04:17:27;;;;;;;77.84;40.59;;;;;;;15.11;64.19;100564.40;462238;114;930558;-84
2021/09/14 04:18:31;;;;;;;71.86;39.40;;;;;;;15.13;64.18;100567.75;464638;114;922542;-85
2021/09/14 04:19:34;;;;;;;76.95;39.89;;;;;;;15.17;64.18;100565.34;463607;113;930974;-83
2021/09/14 04:20:40;;;;;;;70.22;38.60;;;;;;;15.19;64.13;100565.94;462397;114;923390;-85
2021/09/14 04:21:43;;;;;;;65.69;36.72;;;;;;;15.22;64.10;100576.41;463252;114;923180;-84
2021/09/14 04:22:49;;;;;;;67.61;37.69;;;;;;;15.22;64.09;100568.17;462904;114;923054;-84
2021/09/14 04:23:52;;;;;;;66.03;35.13;;;;;;;15.25;64.10;100571.28;461771;114;923047;-85
2021/09/14 04:24:56;;;;;;;50.64;29.49;;;;;;;15.27;64.05;100569.11;462642;113;930325;-86
2021/09/14 04:26:00;;;;;;;62.48;31.24;;;;;;;15.29;63.95;100571.62;462318;113;922997;-83
2021/09/14 04:27:06;;;;;;;61.12;31.62;;;;;;;15.30;63.85;100567.80;457622;114;930266;-84
2021/09/14 04:28:15;;;;;;;66.46;31.34;;;;;;;15.32;63.85;100577.47;455732;113;922670;-83
2021/09/14 04:29:18;;;;;;;59.12;30.06;;;;;;;15.35;63.83;100576.97;463014;113;922631;-83
2021/09/14 04:30:22;;;;;;;66.53;30.73;;;;;;;15.37;63.79;100580.31;461551;114;922530;-83
2021/09/14 04:31:26;;;;;;;61.75;28.87;;;;;;;15.41;63.75;100583.39;463905;114;923000;-85
2021/09/14 04:32:29;;;;;;;65.56;29.85;;;;;;;15.45;63.69;100577.15;463140;114;922851;-83
2021/09/14 04:33:33;;;;;;;50.87;28.74;;;;;;;15.49;63.62;100574.77;463014;114;922668;-85
2021/09/14 04:34:37;;;;;;;60.79;28.91;;;;;;;15.51;63.57;100572.58;465028;113;922205;-86
2021/09/14 04:35:41;;;;;;;53.11;28.23;;;;;;;15.56;63.53;100577.36;462155;113;922521;-81
2021/09/14 04:36:45;;;;;;;43.52;26.49;;;;;;;15.59;63.47;100574.97;462611;113;930002;-83
2021/09/14 04:37:50;;;;;;;44.21;26.98;;;;;;;15.64;63.56;100571.47;463122;113;922342;-83
2021/09/14 04:38:54;;;;;;;48.58;25.18;;;;;;;15.69;63.47;100572.39;464399;114;922859;-84
2021/09/14 04:39:59;;;;;;;54.93;26.49;;;;;;;15.73;63.44;100569.97;464725;114;922570;-83
2021/09/14 04:41:03;;;;;;;46.33;22.85;;;;;;;15.77;63.32;100568.38;464797;114;922297;-82
2021/09/14 04:42:07;;;;;;;35.47;23.34;;;;;;;15.81;63.17;100570.41;455352;116;922823;-83
2021/09/14 04:43:12;;;;;;;50.32;22.83;;;;;;;15.85;63.00;100570.73;447284;116;922237;-82
2021/09/14 04:44:16;;;;;;;56.86;26.89;;;;;;;15.89;62.86;100569.14;445911;116;923048;-83
2021/09/14 04:45:20;;;;;;;51.89;23.52;;;;;;;15.91;62.85;100566.98;445597;116;923546;-84
2021/09/14 04:46:24;;;;;;;46.16;23.06;;;;;;;15.93;62.79;100564.83;463819;113;922637;-84
2021/09/14 04:47:28;;;;;;;37.69;22.64;;;;;;;15.95;62.78;100561.81;462773;113;924891;-84
2021/09/14 04:48:33;;;;;;;46.27;22.52;;;;;;;15.98;62.69;100561.33;462683;113;922420;-83
2021/09/14 04:49:37;;;;;;;38.14;21.98;;;;;;;16.01;62.59;100563.55;462711;113;922478;-82
2021/09/14 04:50:41;;;;;;;30.81;20.48;;;;;;;16.03;62.53;100561.41;457996;115;922818;-84
2021/09/14 04:51:52;;;;;;;35.53;19.87;;;;;;;16.04;62.43;100563.91;459065;114;931351;-83
2021/09/14 04:52:56;;;;;;;33.65;18.44;;;;;;;16.06;62.39;100569.14;461604;114;923274;-81
2021/09/14 04:54:00;;;;;;;27.29;19.81;;;;;;;16.08;62.34;100566.98;462927;114;923149;-83
2021/09/14 04:55:04;;;;;;;27.13;19.59;;;;;;;16.11;62.28;100563.71;463638;114;922972;-82
2021/09/14 04:56:11;;;;;;;26.87;17.94;;;;;;;16.12;62.24;100574.47;457494;115;923105;-85
2021/09/14 04:57:15;;;;;;;30.24;18.78;;;;;;;16.15;62.21;100570.40;458075;114;922823;-82
2021/09/14 04:58:19;;;;;;;37.02;19.58;;;;;;;16.17;62.16;100569.05;462114;114;922486;-84
2021/09/14 04:59:23;;;;;;;30.61;19.99;;;;;;;16.19;62.13;100571.55;453920;116;923164;-81
2021/09/14 05:00:28;;;;;;;40.29;19.31;;;;;;;16.20;62.13;100567.73;448723;115;922604;-84
2021/09/14 05:01:33;;;;;;;34.74;19.62;;;;;;;16.22;62.11;100569.13;449729;116;922606;-85
2021/09/14 05:02:37;;;;;;;29.72;20.29;;;;;;;16.25;62.12;100576.05;450977;116;923053;-83
2021/09/14 05:03:41;;;;;;;35.79;22.27;;;;;;;16.27;62.15;100576.61;453293;114;923294;-82
2021/09/14 05:04:46;;;;;;;35.17;22.50;;;;;;;16.29;62.08;100571.70;464536;114;922966;-82
2021/09/14 05:05:51;;;;;;;38.29;22.17;;;;;;;16.31;61.97;100577.80;461930;113;923052;-81
2021/09/14 05:06:56;;;;;;;31.37;21.48;;;;;;;16.34;61.96;100570.94;460233;114;922573;-85
2021/09/14 05:08:00;;;;;;;36.04;21.15;;;;;;;16.36;61.96;100566.86;459847;114;922894;-83
2021/09/14 05:09:04;;;;;;;41.57;20.48;;;;;;;16.40;61.98;100579.02;460380;114;922946;-84
2021/09/14 05:10:10;;;;;;;53.01;23.40;;;;;;;16.45;61.99;100567.25;459416;114;922490;-84
2021/09/14 05:11:16;;;;;;;52.66;21.88;;;;;;;16.50;61.94;100565.40;460460;114;922618;-84
2021/09/14 05:12:20;;;;;;;39.29;21.31;;;;;;;16.55;61.89;100567.38;460183;114;922488;-85
2021/09/14 05:13:25;;;;;;;51.09;20.63;;;;;;;16.59;61.90;100563.09;461096;114;922495;-85
2021/09/14 05:14:32;;;;;;;37.09;20.95;;;;;;;16.64;61.86;100563.16;457956;114;922652;-83
2021/09/14 05:15:40;;;;;;;53.26;30.97;;;;;;;16.68;61.84;100564.30;448378;114;922684;-83
2021/09/14 05:16:47;;;;;;;46.57;31.38;;;;;;;16.71;61.81;100566.53;446993;114;923069;-81
2021/09/14 05:18:13;;;;;;;49.70;26.52;;;;;;;16.75;61.80;100564.95;459710;114;922888;-81
2021/09/14 05:19:22;;;;;;;49.12;25.95;;;;;;;16.80;61.80;100561.43;459414;114;922415;-83
2021/09/14 05:20:22;;;;;;;43.18;23.59;;;;;;;16.82;61.76;100571.08;458746;114;923022;-82
2021/09/14 05:21:25;;;;;;;44.35;23.04;;;;;;;16.85;61.77;100573.34;459569;114;922979;-81
2021/09/14 05:22:34;;;;;;;42.10;22.95;;;;;;;16.89;61.74;100571.73;459810;114;922540;-82
2021/09/14 05:23:37;;;;;;;38.39;21.33;;;;;;;16.94;61.74;100565.45;460283;114;930338;-82
2021/09/14 05:24:41;;;;;;;53.99;22.71;;;;;;;16.98;61.68;100570.17;460268;114;922063;-81
2021/09/14 05:25:45;;;;;;;54.00;24.32;;;;;;;17.03;61.58;100572.19;459801;114;930369;-79
2021/09/14 05:26:49;;;;;;;61.07;22.73;;;;;;;17.05;61.51;100570.82;460425;114;922157;-81
2021/09/14 05:27:53;;;;;;;42.23;22.34;;;;;;;17.07;61.45;100565.90;460445;114;922142;-82
2021/09/14 05:28:57;;;;;;;45.76;21.86;;;;;;;17.09;61.44;100574.72;461952;111;922291;-85
2021/09/14 05:30:00;;;;;;;54.24;22.79;;;;;;;17.12;61.45;100567.04;460871;114;922099;-82
2021/09/14 05:31:06;;;;;;;57.81;23.94;;;;;;;17.13;61.50;100566.79;461194;114;922975;-81
2021/09/14 05:32:11;;;;;;;48.88;23.25;;;;;;;17.16;61.54;100566.26;461045;114;931104;-80
2021/09/14 05:33:15;;;;;;;46.98;23.52;;;;;;;17.17;61.50;100561.58;460443;114;922408;-81
2021/09/14 05:34:20;;;;;;;54.28;24.86;;;;;;;17.18;61.45;100561.33;461041;114;922845;-80
2021/09/14 05:35:28;;;;;;;44.18;23.23;;;;;;;17.19;61.41;100559.41;459277;114;922677;-79
2021/09/14 05:36:32;;;;;;;39.22;23.09;;;;;;;17.21;61.45;100562.72;459094;114;922830;-80
2021/09/14 05:37:36;;;;;;;42.05;23.35;;;;;;;17.24;61.46;100562.22;459422;114;922534;-81
2021/09/14 05:38:41;;;;;;;39.33;23.26;;;;;;;17.30;61.15;100563.95;459582;114;922786;-79
2021/09/14 05:39:45;;;;;;;44.17;24.27;;;;;;;17.30;61.15;100563.95;458786;114;930401;-81